Nebraska, Indiana
Current Conditions -  °F | °C
As of 4:13 PM on Monday 22 Dec 2014 (Local Time) from KIMS Reporting Station
Broken Clouds Broken Clouds  
Wind Chill: 50°   Ceiling: 9000
Heat Index: 50°   Visibility: 10mi
Dew Point: 37°   Wind: 5mph
Humidity: 62%   Direction: 110°ESE
Pressure: 29.8"   Gusts: NA
Location:  39.06°N, 85.46°W
Report Text: KIMS 222113Z AUTO 11004KT 10SM SCT075 BKN090 10/03 A2980 RMK AO1
Loading
Personal Weather Stations






























Interactive Weather Map New forecast layout! Learn more

10-Day Weather Forecast

Advertisements
Track Severe Weather on mobile